King Abdulaziz International Airport
OEJN : now visible

Airfield :











YOU CAN JOIN US ON...

 
LOGIN :

Register | Disclaimer

   EN    FR    IT 

 









Legend :    VFR   Marginal VFR   IFR   Intensive IFR   Very Intensive IFR
Visi :
Ceiling :
>= 8 km
>= 3000ft
5 to 8 km
1000 to 3000 ft
1500m to 5 km
500 to 1000 ft
800 to 1500m
200 to 500 ft
< 800m
< 200 ft
Symbols :   Thunderstorms  Fog  Heavy snow  Heavy precipitations  Wind > 20 kt







- Airport Elevation : 48 ft
- IATA code : JED


OEJN - King Abdulaziz International

CURRENT METAR :
  • 200900Z 30012KT CAVOK 35/25 Q1004 NOSIG

EXPIRED METARs :
  • 200800Z 29011KT CAVOK 34/24 Q1005 NOSIG
  • 200700Z 32008KT CAVOK 33/23 Q1005 NOSIG

TAF TAF OEJN
Valid from the 20 at 06:00 until the 21 at 12:00 UTC


200500Z 2006/2112 33015KT 9999 FEW040
BECMG 2020/2022 VRB03KT
OEJD FIR / Asia



MET'MAP, your aeronautical weather chart ! - Copyright ORBIFLY December 2007 - Disclaimer

ORBIFLY MET'MAP TEAM :

Programming & Development : Alexandra Zaïnal
Concept & Development : Baudouin d'Aumeries
Co-Development & Prog : Marc-Olivier Méhu
Technical & hardware support : Manuel Goepfert

Contact : metmap@orbifly.com




SOURCES & CREDITS :

   NOAA       Earth
Advisory